createdAt,value
2023-05-11T00:01:28.113Z,2.35
2023-05-11T00:03:56.021Z,2.17
2023-05-11T00:06:22.844Z,2.38
2023-05-11T00:08:49.402Z,1.85
2023-05-11T00:11:16.630Z,2.13
2023-05-11T00:13:43.248Z,2.22
2023-05-11T00:16:09.865Z,2.20
2023-05-11T00:18:36.475Z,1.98
2023-05-11T00:21:03.016Z,2.67
2023-05-11T00:23:29.569Z,2.13
2023-05-11T00:25:56.067Z,2.20
2023-05-11T00:28:23.099Z,2.58
2023-05-11T00:30:49.602Z,1.70
2023-05-11T00:33:16.260Z,2.40
2023-05-11T00:35:43.705Z,2.10
2023-05-11T00:38:10.359Z,2.30
2023-05-11T00:40:36.864Z,2.83
2023-05-11T00:43:03.393Z,1.83
2023-05-11T00:45:30.056Z,2.08
2023-05-11T00:47:56.730Z,2.13
2023-05-11T00:50:23.460Z,2.20
2023-05-11T00:52:50.551Z,1.95
2023-05-11T00:55:19.538Z,2.13
2023-05-11T00:57:46.298Z,2.03
2023-05-11T01:00:21.727Z,2.72
2023-05-11T01:02:48.531Z,2.55
2023-05-11T01:05:15.284Z,2.25
2023-05-11T01:07:56.564Z,2.25
2023-05-11T01:10:35.326Z,1.90
2023-05-11T01:13:15.382Z,2.15
2023-05-11T01:15:46.969Z,2.55
2023-05-11T01:18:32.314Z,2.08
2023-05-11T01:21:06.964Z,2.50
2023-05-11T01:23:52.365Z,1.92
2023-05-11T01:26:49.665Z,2.15
2023-05-11T01:29:41.423Z,2.15
2023-05-11T01:32:17.697Z,2.20
2023-05-11T01:34:45.351Z,2.15
2023-05-11T01:37:19.799Z,2.70
2023-05-11T01:39:52.480Z,1.95
2023-05-11T01:42:22.028Z,2.55
2023-05-11T01:44:52.242Z,3.00
2023-05-11T01:47:21.761Z,2.55
2023-05-11T01:49:49.122Z,3.33
2023-05-11T01:52:16.451Z,2.20
2023-05-11T01:54:43.903Z,2.40
2023-05-11T01:57:12.510Z,2.63
2023-05-11T01:59:39.815Z,2.53
2023-05-11T02:02:06.775Z,2.50
2023-05-11T02:04:35.014Z,2.40
2023-05-11T02:07:02.660Z,2.47
2023-05-11T02:09:30.691Z,2.22
2023-05-11T02:11:57.770Z,2.50
2023-05-11T02:14:25.530Z,2.10
2023-05-11T02:16:52.650Z,2.97
2023-05-11T02:19:21.256Z,2.10
2023-05-11T02:21:48.221Z,2.53
2023-05-11T02:24:15.991Z,1.92
2023-05-11T02:26:42.691Z,2.30
2023-05-11T02:29:09.458Z,2.45
2023-05-11T02:31:39.673Z,2.13
2023-05-11T02:34:14.830Z,2.40
2023-05-11T02:36:42.307Z,2.03
2023-05-11T02:39:09.998Z,2.38
2023-05-11T02:44:08.826Z,1.83
2023-05-11T02:46:36.902Z,2.05
2023-05-11T02:49:05.726Z,1.95
2023-05-11T02:51:37.253Z,1.98
2023-05-11T02:54:07.019Z,2.13
2023-05-11T02:56:38.220Z,1.80
2023-05-11T02:59:05.023Z,2.17
2023-05-11T03:01:31.977Z,2.38
2023-05-11T03:03:58.863Z,1.52
2023-05-11T03:06:27.407Z,1.92
2023-05-11T03:08:54.380Z,2.17
2023-05-11T03:11:21.260Z,2.20
2023-05-11T03:13:48.364Z,2.10
2023-05-11T03:16:17.023Z,2.60
2023-05-11T03:18:46.280Z,2.47
2023-05-11T03:21:18.054Z,2.80
2023-05-11T03:23:45.965Z,2.70
2023-05-11T03:26:13.045Z,2.22
2023-05-11T03:28:41.260Z,1.95
2023-05-11T03:31:08.147Z,2.05
2023-05-11T03:33:35.165Z,2.20
2023-05-11T03:36:03.502Z,2.22
2023-05-11T03:38:31.396Z,2.40
2023-05-11T03:41:00.684Z,1.80
2023-05-11T03:43:30.367Z,2.50
2023-05-11T03:45:57.627Z,2.17
2023-05-11T03:48:25.453Z,2.63
2023-05-11T03:50:52.073Z,2.38
2023-05-11T03:53:19.168Z,1.40
2023-05-11T03:55:46.252Z,2.40
2023-05-11T03:58:12.868Z,1.95
2023-05-11T04:00:40.708Z,2.08
2023-05-11T04:03:08.931Z,2.35
2023-05-11T04:05:35.911Z,2.15
2023-05-11T04:08:05.894Z,2.00
2023-05-11T04:10:32.969Z,1.80
2023-05-11T04:12:59.500Z,2.15
2023-05-11T04:15:26.037Z,1.90
2023-05-11T04:17:52.589Z,2.45
2023-05-11T04:20:19.572Z,2.83
2023-05-11T04:22:46.633Z,1.90
2023-05-11T04:25:16.528Z,1.35
2023-05-11T04:27:43.333Z,2.20
2023-05-11T04:30:11.242Z,1.77
2023-05-11T04:32:37.769Z,1.88
2023-05-11T04:35:04.786Z,1.92
2023-05-11T04:37:34.697Z,1.70
2023-05-11T04:40:04.358Z,2.17
2023-05-11T04:42:36.710Z,1.88
2023-05-11T04:45:08.981Z,2.08
2023-05-11T04:47:35.613Z,2.03
2023-05-11T04:50:02.283Z,1.83
2023-05-11T04:52:30.802Z,1.98
2023-05-11T04:54:57.344Z,2.03
2023-05-11T04:57:23.966Z,2.15
2023-05-11T04:59:50.706Z,1.70
2023-05-11T05:02:17.208Z,1.52
2023-05-11T05:04:44.725Z,1.67
2023-05-11T05:07:12.492Z,1.95
2023-05-11T05:09:39.089Z,2.25
2023-05-11T05:12:05.913Z,1.48
2023-05-11T05:14:32.713Z,1.35
2023-05-11T05:17:01.265Z,2.03
2023-05-11T05:19:28.188Z,2.03
2023-05-11T05:21:55.172Z,1.92
2023-05-11T05:24:21.718Z,1.45
2023-05-11T05:26:48.288Z,1.60
2023-05-11T05:29:14.873Z,1.58
2023-05-11T05:31:42.301Z,1.65
2023-05-11T05:34:09.191Z,1.17
2023-05-11T05:36:37.164Z,2.08
2023-05-11T05:39:08.734Z,1.80
2023-05-11T05:41:36.818Z,1.40
2023-05-11T05:44:06.794Z,1.40
2023-05-11T05:46:33.551Z,1.40
2023-05-11T05:49:00.436Z,1.65
2023-05-11T05:51:27.049Z,1.10
2023-05-11T05:53:53.624Z,1.05
2023-05-11T05:56:21.681Z,1.88
2023-05-11T05:58:48.412Z,1.88
2023-05-11T06:01:15.155Z,1.55
2023-05-11T06:03:41.905Z,1.60
2023-05-11T06:06:08.570Z,1.23
2023-05-11T06:08:35.123Z,1.50
2023-05-11T06:11:01.638Z,1.25
2023-05-11T06:13:28.334Z,1.50
2023-05-11T06:15:55.233Z,1.33
2023-05-11T06:18:28.037Z,1.13
2023-05-11T06:20:55.161Z,1.50
2023-05-11T06:23:25.617Z,1.38
2023-05-11T06:25:52.346Z,1.50
2023-05-11T06:28:19.900Z,0.80
2023-05-11T06:30:46.446Z,1.67
2023-05-11T06:33:13.064Z,1.58
2023-05-11T06:35:43.691Z,1.52
2023-05-11T06:38:12.637Z,1.75
2023-05-11T06:40:39.150Z,3.08
2023-05-11T06:43:06.498Z,1.63
2023-05-11T06:45:47.861Z,1.42
2023-05-11T06:48:15.034Z,1.77
2023-05-11T06:50:41.572Z,1.30
2023-05-11T06:53:12.434Z,1.38
2023-05-11T06:55:39.029Z,1.25
2023-05-11T06:58:05.602Z,1.35
2023-05-11T07:00:32.121Z,1.38
2023-05-11T07:02:59.821Z,1.13
2023-05-11T07:05:26.645Z,1.30
2023-05-11T07:07:53.209Z,0.90
2023-05-11T07:10:20.136Z,0.88
2023-05-11T07:12:46.860Z,1.35
2023-05-11T07:15:13.444Z,0.90
2023-05-11T07:17:40.095Z,0.65
2023-05-11T07:20:07.684Z,0.70
2023-05-11T07:22:34.263Z,0.70
2023-05-11T07:25:00.789Z,0.82
2023-05-11T07:27:27.390Z,0.75
2023-05-11T07:29:53.965Z,0.82
2023-05-11T07:32:20.591Z,0.73
2023-05-11T07:34:47.113Z,0.70
2023-05-11T07:37:13.783Z,1.38
2023-05-11T07:39:40.807Z,1.00
2023-05-11T07:42:07.342Z,0.80
2023-05-11T07:44:33.872Z,1.00
2023-05-11T07:47:00.387Z,1.05
2023-05-11T07:49:35.539Z,0.98
2023-05-11T07:52:06.333Z,0.85
2023-05-11T07:54:32.886Z,1.05
2023-05-11T07:56:59.644Z,1.00
2023-05-11T07:59:26.198Z,1.02
2023-05-11T08:01:52.757Z,0.85
2023-05-11T08:04:19.400Z,1.10
2023-05-11T08:06:45.890Z,1.25
2023-05-11T08:09:12.388Z,0.70
2023-05-11T08:11:39.023Z,0.73
2023-05-11T08:14:05.841Z,1.10
2023-05-11T08:16:32.732Z,0.80
2023-05-11T08:18:59.245Z,0.90
2023-05-11T08:21:26.269Z,0.90
2023-05-11T08:23:52.919Z,1.00
2023-05-11T08:26:21.386Z,0.80
2023-05-11T08:28:47.925Z,1.00
2023-05-11T08:31:14.533Z,0.82
2023-05-11T08:33:41.121Z,0.70
2023-05-11T08:36:08.721Z,1.35
2023-05-11T08:38:35.707Z,0.70
2023-05-11T08:41:02.841Z,0.73
2023-05-11T08:43:29.552Z,1.55
2023-05-11T08:46:01.153Z,0.95
2023-05-11T08:48:28.078Z,1.00
2023-05-11T08:50:54.810Z,1.17
2023-05-11T08:53:22.605Z,0.90
2023-05-11T08:55:51.412Z,0.80
2023-05-11T09:00:49.739Z,0.60
2023-05-11T09:03:17.544Z,0.75
2023-05-11T09:05:46.409Z,0.70
2023-05-11T09:08:14.573Z,0.82
2023-05-11T09:10:42.350Z,0.90
2023-05-11T09:13:09.380Z,1.30
2023-05-11T09:15:38.085Z,0.80
2023-05-11T09:18:05.511Z,0.65
2023-05-11T09:20:33.678Z,0.70
2023-05-11T09:23:00.782Z,0.70
2023-05-11T09:25:30.670Z,0.63
2023-05-11T09:27:57.872Z,0.75
2023-05-11T09:30:24.798Z,0.50
2023-05-11T09:32:58.252Z,0.90
2023-05-11T09:35:29.069Z,1.50
2023-05-11T09:38:04.100Z,0.43
2023-05-11T09:40:34.294Z,0.93
2023-05-11T09:43:02.158Z,0.82
2023-05-11T09:45:46.049Z,0.70
2023-05-11T09:48:21.909Z,0.88
2023-05-11T09:50:49.705Z,0.73
2023-05-11T09:53:17.134Z,0.68
2023-05-11T09:55:55.457Z,0.50
2023-05-11T09:58:22.118Z,0.65
2023-05-11T10:00:52.522Z,0.80
2023-05-11T10:03:20.075Z,0.93
2023-05-11T10:06:00.971Z,0.90
2023-05-11T10:08:34.169Z,0.75
2023-05-11T10:11:02.468Z,0.70
2023-05-11T10:13:29.743Z,0.60
2023-05-11T10:15:59.124Z,0.70
2023-05-11T10:18:26.429Z,0.88
2023-05-11T10:20:53.626Z,0.73
2023-05-11T10:23:20.926Z,0.60
2023-05-11T10:25:48.014Z,0.85
2023-05-11T10:28:15.083Z,0.52
2023-05-11T10:30:41.735Z,0.80
2023-05-11T10:33:08.592Z,0.98
2023-05-11T10:35:37.720Z,0.75
2023-05-11T10:38:04.201Z,0.65
2023-05-11T10:40:38.319Z,1.00
2023-05-11T10:43:13.755Z,0.77
2023-05-11T10:45:52.817Z,0.93
2023-05-11T10:48:57.069Z,0.65
2023-05-11T10:51:47.338Z,0.63
2023-05-11T10:54:30.514Z,0.93
2023-05-11T10:57:12.601Z,0.68
2023-05-11T10:59:57.868Z,0.68
2023-05-11T11:02:31.207Z,1.02
2023-05-11T11:04:58.791Z,1.00
2023-05-11T11:07:25.427Z,1.10
2023-05-11T11:10:05.137Z,0.68
2023-05-11T11:12:34.871Z,0.90
2023-05-11T11:15:06.568Z,0.98
2023-05-11T11:17:35.078Z,0.73
2023-05-11T11:22:41.539Z,0.68
2023-05-11T11:25:09.641Z,0.75
2023-05-11T11:27:57.172Z,1.05
2023-05-11T11:30:29.073Z,0.38
2023-05-11T11:33:15.634Z,0.50
2023-05-11T11:35:42.722Z,0.75
2023-05-11T11:38:11.303Z,0.45
2023-05-11T11:40:50.801Z,0.60
2023-05-11T11:43:26.740Z,0.80
2023-05-11T11:45:57.561Z,0.32
2023-05-11T11:48:36.417Z,0.77
2023-05-11T11:51:11.213Z,0.50
2023-05-11T11:53:37.881Z,0.50
2023-05-11T11:56:05.762Z,0.63
2023-05-11T11:58:41.665Z,0.60
2023-05-11T12:01:10.035Z,0.68
2023-05-11T12:03:37.617Z,0.63
2023-05-11T12:06:09.034Z,0.80
2023-05-11T12:08:36.524Z,1.02
2023-05-11T12:11:03.821Z,0.50
2023-05-11T12:13:30.557Z,0.52
2023-05-11T12:16:17.242Z,0.60
2023-05-11T12:18:52.442Z,0.50
2023-05-11T12:24:05.394Z,0.50
2023-05-11T12:26:33.011Z,0.75
2023-05-11T12:29:13.958Z,0.55
2023-05-11T12:31:43.285Z,0.50
2023-05-11T12:34:20.545Z,0.70
2023-05-11T12:36:48.456Z,0.45
2023-05-11T12:39:19.271Z,0.75
2023-05-11T12:41:47.409Z,0.50
2023-05-11T12:44:16.046Z,0.63
2023-05-11T12:46:44.178Z,1.02
2023-05-11T12:49:13.839Z,1.05
2023-05-11T12:51:58.620Z,1.02
2023-05-11T12:54:37.516Z,0.50
2023-05-11T12:57:04.892Z,0.50
2023-05-11T12:59:40.878Z,0.82
2023-05-11T13:02:14.945Z,0.65
2023-05-11T13:04:42.453Z,0.45
2023-05-11T13:07:09.854Z,0.82
2023-05-11T13:09:36.978Z,0.68
2023-05-11T13:12:17.155Z,0.73
2023-05-11T13:14:45.535Z,0.47
2023-05-11T13:17:12.131Z,0.65
2023-05-11T13:19:39.441Z,0.77
2023-05-11T13:22:06.965Z,0.57
2023-05-11T13:24:34.686Z,0.63
2023-05-11T13:27:01.578Z,0.80
2023-05-11T13:29:28.324Z,0.47
2023-05-11T13:31:55.047Z,0.70
2023-05-11T13:34:21.651Z,0.80
2023-05-11T13:36:48.492Z,0.88
2023-05-11T13:39:15.234Z,0.93
2023-05-11T13:41:41.901Z,0.70
2023-05-11T13:44:08.665Z,0.70
2023-05-11T13:46:35.883Z,0.80
2023-05-11T13:49:04.528Z,1.00
2023-05-11T13:53:59.277Z,0.93
2023-05-11T13:56:25.972Z,0.68
2023-05-11T13:58:52.550Z,0.90
2023-05-11T14:01:19.165Z,0.50
2023-05-11T14:03:45.762Z,0.60
2023-05-11T14:06:12.713Z,0.60
2023-05-11T14:08:39.254Z,0.50
2023-05-11T14:11:05.911Z,0.80
2023-05-11T14:13:32.479Z,0.52
2023-05-11T14:15:59.037Z,0.95
2023-05-11T14:18:26.015Z,1.02
2023-05-11T14:20:53.771Z,0.45
2023-05-11T14:23:20.455Z,0.60
2023-05-11T14:25:47.479Z,0.82
2023-05-11T14:28:14.337Z,0.65
2023-05-11T14:30:41.121Z,0.60
2023-05-11T14:33:08.053Z,0.50
2023-05-11T14:35:36.007Z,0.63
2023-05-11T14:38:04.559Z,0.70
2023-05-11T14:40:31.474Z,1.20
2023-05-11T14:42:58.101Z,0.85
2023-05-11T14:45:24.915Z,0.63
2023-05-11T14:47:51.530Z,0.63
2023-05-11T14:50:18.329Z,0.70
2023-05-11T14:52:45.162Z,0.60
2023-05-11T14:55:11.842Z,0.95
2023-05-11T14:57:38.458Z,0.85
2023-05-11T15:00:05.785Z,0.65
2023-05-11T15:02:32.617Z,0.60
2023-05-11T15:04:59.292Z,0.85
2023-05-11T15:07:26.612Z,0.63
2023-05-11T15:09:53.584Z,0.40
2023-05-11T15:12:20.324Z,0.90
2023-05-11T15:14:46.908Z,0.60
2023-05-11T15:17:13.474Z,0.68
2023-05-11T15:19:42.593Z,0.50
2023-05-11T15:22:09.190Z,0.75
2023-05-11T15:24:35.770Z,0.77
2023-05-11T15:27:02.333Z,1.00
2023-05-11T15:29:28.935Z,0.60
2023-05-11T15:31:55.854Z,0.70
2023-05-11T15:34:22.460Z,0.77
2023-05-11T15:36:49.717Z,0.68
2023-05-11T15:39:17.195Z,0.65
2023-05-11T15:41:43.906Z,0.68
2023-05-11T15:44:10.465Z,0.68
2023-05-11T15:46:38.191Z,0.60
2023-05-11T15:49:04.823Z,0.98
2023-05-11T15:51:31.948Z,0.52
2023-05-11T15:53:58.549Z,0.80
2023-05-11T15:56:25.076Z,0.75
2023-05-11T15:58:52.153Z,0.82
2023-05-11T16:01:19.313Z,0.90
2023-05-11T16:03:46.160Z,0.88
2023-05-11T16:06:12.887Z,0.70
2023-05-11T16:08:39.530Z,0.80
2023-05-11T16:11:06.557Z,0.70
2023-05-11T16:13:33.135Z,0.50
2023-05-11T16:15:59.970Z,0.90
2023-05-11T16:18:27.201Z,0.75
2023-05-11T16:20:54.092Z,0.55
2023-05-11T16:23:21.166Z,0.50
2023-05-11T16:25:47.770Z,0.90
2023-05-11T16:28:14.245Z,0.52
2023-05-11T16:30:40.784Z,0.70
2023-05-11T16:33:07.386Z,1.25
2023-05-11T16:35:34.100Z,0.82
2023-05-11T16:38:00.768Z,0.82
2023-05-11T16:40:28.453Z,0.52
2023-05-11T16:42:54.928Z,0.70
2023-05-11T16:45:21.560Z,0.57
2023-05-11T16:47:48.212Z,0.70
2023-05-11T16:50:15.931Z,0.40
2023-05-11T16:52:42.863Z,0.73
2023-05-11T16:55:10.142Z,1.00
2023-05-11T16:57:36.737Z,0.88
2023-05-11T17:00:03.902Z,0.60
2023-05-11T17:02:30.845Z,0.55
2023-05-11T17:04:57.410Z,0.68
2023-05-11T17:07:25.362Z,1.00
2023-05-11T17:09:56.239Z,0.60
2023-05-11T17:12:23.405Z,0.57
2023-05-11T17:14:49.961Z,0.85
2023-05-11T17:17:16.649Z,0.77
2023-05-11T17:19:43.272Z,0.73
2023-05-11T17:22:09.941Z,0.73
2023-05-11T17:24:37.032Z,0.43
2023-05-11T17:27:03.786Z,0.73
2023-05-11T17:29:30.943Z,0.75
2023-05-11T17:31:57.706Z,0.77
2023-05-11T17:34:27.245Z,0.75
2023-05-11T17:36:55.431Z,0.60
2023-05-11T17:39:21.915Z,0.47
2023-05-11T17:41:48.602Z,0.50
2023-05-11T17:44:15.133Z,0.60
2023-05-11T17:46:41.821Z,0.60
2023-05-11T17:49:08.766Z,0.80
2023-05-11T17:51:35.375Z,0.70
2023-05-11T17:54:01.968Z,1.00
2023-05-11T17:56:28.478Z,0.60
2023-05-11T17:58:55.314Z,1.15
2023-05-11T18:01:22.631Z,0.70
2023-05-11T18:03:49.596Z,0.95
2023-05-11T18:06:16.410Z,0.80
2023-05-11T18:08:43.879Z,0.90
2023-05-11T18:11:12.579Z,0.98
2023-05-11T18:13:39.522Z,0.82
2023-05-11T18:16:06.984Z,0.50
2023-05-11T18:18:33.921Z,0.80
2023-05-11T18:21:07.207Z,0.80
2023-05-11T18:23:34.118Z,0.50
2023-05-11T18:26:00.743Z,0.60
2023-05-11T18:28:27.420Z,0.80
2023-05-11T18:30:54.212Z,0.77
2023-05-11T18:33:20.921Z,0.70
2023-05-11T18:35:47.988Z,0.82
2023-05-11T18:38:14.576Z,0.80
2023-05-11T18:40:41.225Z,1.10
2023-05-11T18:43:07.915Z,1.02
2023-05-11T18:45:34.988Z,0.98
2023-05-11T18:48:02.675Z,1.00
2023-05-11T18:50:29.823Z,1.00
2023-05-11T18:52:56.959Z,1.00
2023-05-11T18:55:23.948Z,0.93
2023-05-11T18:57:50.585Z,0.80
2023-05-11T19:00:17.956Z,0.98
2023-05-11T19:02:47.867Z,0.82
2023-05-11T19:05:14.597Z,0.98
2023-05-11T19:07:41.144Z,0.73
2023-05-11T19:10:08.294Z,0.93
2023-05-11T19:12:34.825Z,0.93
2023-05-11T19:15:01.360Z,0.75
2023-05-11T19:17:28.590Z,3.70
2023-05-11T19:19:56.698Z,2.85
2023-05-11T19:22:24.110Z,1.02
2023-05-11T19:24:50.597Z,1.45
2023-05-11T19:27:17.169Z,1.98
2023-05-11T19:29:43.747Z,0.73
2023-05-11T19:32:10.411Z,0.80
2023-05-11T19:34:37.036Z,0.93
2023-05-11T19:37:04.039Z,0.63
2023-05-11T19:39:30.640Z,0.73
2023-05-11T19:41:57.168Z,0.60
2023-05-11T19:44:23.788Z,0.93
2023-05-11T19:46:50.377Z,1.15
2023-05-11T19:49:17.355Z,1.13
2023-05-11T19:51:44.083Z,0.65
2023-05-11T19:54:11.328Z,0.82
2023-05-11T19:56:38.160Z,4.45
2023-05-11T19:59:04.835Z,1.48
2023-05-11T20:01:31.586Z,3.03
2023-05-11T20:03:58.328Z,10.10
2023-05-11T20:06:25.598Z,1.77
2023-05-11T20:08:52.811Z,1.20
2023-05-11T20:11:19.778Z,0.88
2023-05-11T20:13:47.647Z,0.95
2023-05-11T20:16:14.322Z,0.70
2023-05-11T20:18:40.962Z,2.08
2023-05-11T20:21:07.570Z,1.77
2023-05-11T20:23:35.287Z,0.90
2023-05-11T20:26:03.812Z,0.75
2023-05-11T20:28:30.430Z,0.73
2023-05-11T20:30:56.970Z,1.05
2023-05-11T20:35:53.672Z,0.70
2023-05-11T20:38:20.492Z,1.08
2023-05-11T20:40:47.122Z,0.98
2023-05-11T20:43:14.981Z,0.90
2023-05-11T20:45:42.178Z,0.80
2023-05-11T20:48:09.090Z,2.33
2023-05-11T20:50:35.718Z,7.70
2023-05-11T20:53:02.326Z,1.90
2023-05-11T20:55:32.124Z,1.02
2023-05-11T20:57:59.367Z,1.02
2023-05-11T21:00:27.468Z,1.17
2023-05-11T21:02:55.025Z,1.00
2023-05-11T21:05:24.159Z,1.00
2023-05-11T21:07:54.452Z,1.10
2023-05-11T21:10:27.623Z,2.03
2023-05-11T21:12:54.828Z,1.20
2023-05-11T21:15:21.433Z,1.42
2023-05-11T21:17:48.100Z,1.10
2023-05-11T21:20:18.723Z,0.73
2023-05-11T21:22:46.059Z,1.27
2023-05-11T21:25:14.972Z,1.02
2023-05-11T21:27:41.866Z,0.98
2023-05-11T21:30:11.343Z,1.38
2023-05-11T21:32:38.069Z,1.02
2023-05-11T21:35:05.021Z,1.02
2023-05-11T21:37:33.732Z,1.17
2023-05-11T21:40:00.442Z,1.20
2023-05-11T21:42:27.043Z,1.27
2023-05-11T21:44:53.734Z,0.90
2023-05-11T21:47:20.418Z,0.90
2023-05-11T21:55:32.758Z,1.15
2023-05-11T21:57:59.660Z,1.17
2023-05-11T22:00:26.643Z,1.30
2023-05-11T22:02:53.618Z,1.00
2023-05-11T22:08:15.684Z,1.40
2023-05-11T22:11:35.872Z,1.15
2023-05-11T22:14:44.255Z,1.65
2023-05-11T22:20:18.512Z,1.30
2023-05-11T22:22:52.177Z,1.20
2023-05-11T22:25:26.613Z,1.60
2023-05-11T22:27:55.913Z,1.30
2023-05-11T22:30:22.962Z,1.40
2023-05-11T22:32:51.930Z,0.88
2023-05-11T22:35:18.506Z,1.25
2023-05-11T22:37:45.062Z,1.02
2023-05-11T22:40:12.221Z,1.48
2023-05-11T22:42:38.716Z,0.90
2023-05-11T22:45:08.896Z,1.70
2023-05-11T22:47:35.501Z,1.23
2023-05-11T22:50:02.604Z,1.00
2023-05-11T22:52:29.195Z,1.05
2023-05-11T22:54:58.445Z,1.42
2023-05-11T22:57:28.680Z,1.92
2023-05-11T22:59:55.213Z,1.52
2023-05-11T23:02:22.824Z,1.13
2023-05-11T23:04:53.068Z,2.15
2023-05-11T23:07:19.880Z,1.15
2023-05-11T23:21:08.168Z,1.88
2023-05-11T23:23:13.448Z,1.58
2023-05-11T23:25:40.368Z,1.50
2023-05-11T23:28:11.384Z,1.15
2023-05-11T23:30:38.212Z,1.58
2023-05-11T23:33:04.819Z,1.65
2023-05-11T23:35:31.493Z,1.38
2023-05-11T23:37:58.109Z,1.75
2023-05-11T23:40:27.191Z,1.92
2023-05-11T23:42:53.965Z,1.45
2023-05-11T23:45:20.578Z,1.20
2023-05-11T23:47:47.122Z,1.02
2023-05-11T23:50:13.788Z,1.52
2023-05-11T23:52:40.478Z,1.00
2023-05-11T23:55:08.056Z,1.30
2023-05-11T23:57:34.579Z,1.10
